ADDS METAR Data INFO
IDs: Format: Raw Decoded Include TAF

Data at: 0428 UTC 28 Jul 2017

KGYI 280415Z AUTO 16009KT 10SM CLR 29/21 A2992 RMK AO2 T02900205
KGYI 280355Z AUTO 16009KT 10SM CLR 29/20 A2992 RMK AO2 T02930203
KGYI 280335Z AUTO 16009KT 10SM CLR 30/20 A2992 RMK AO2 T02950201
KGYI 280315Z AUTO 15008KT 10SM CLR 30/20 A2992 RMK AO2 T02960202
KGYI 280255Z AUTO 17009KT 10SM CLR 30/20 A2990 RMK AO2 T03010200
KGYI 280235Z AUTO 17009KT 10SM CLR 30/20 A2990 RMK AO2 T03020202
KGYI 280215Z AUTO 17009KT 10SM CLR 30/21 A2989 RMK AO2 T03010208
KGYI 280155Z AUTO 17009KT 10SM CLR 31/21 A2989 RMK AO2 T03060213
KGYI 280135Z AUTO 17007KT 10SM CLR 31/22 A2989 RMK AO2 T03060217
KGYI 280115Z AUTO 16007KT 10SM CLR 31/22 A2989 RMK AO2 T03130215
KGYI 280055Z AUTO 17008KT 10SM CLR 32/22 A2989 RMK AO2 T03200215
KGYI 280035Z AUTO 17007KT 10SM CLR 33/22 A2989 RMK AO2 T03280219
KGYI 280015Z AUTO 20007KT 10SM CLR 34/21 A2989 RMK AO2 T03410212
KGYI 272355Z AUTO 20007KT 10SM CLR 34/22 A2989 RMK AO2 T03420216 10355 20333
KGYI 272335Z AUTO 20006KT 10SM CLR 35/21 A2990 RMK AO2 T03460211
KGYI 272315Z AUTO 22007KT 10SM CLR 35/21 A2990 RMK AO2 T03470209
KGYI 272255Z AUTO 20008KT 10SM CLR 35/22 A2991 RMK AO2 T03450216
KGYI 272235Z AUTO 19008KT 10SM CLR 35/21 A2992 RMK AO2 T03460213
KGYI 272215Z AUTO 19009KT 10SM CLR 35/21 A2993 RMK AO2 T03450211
KGYI 272155Z AUTO 19010KT 10SM CLR 35/21 A2994 RMK AO2 T03470212
KGYI 272135Z AUTO 19009KT 10SM CLR 35/21 A2994 RMK AO2 T03470213
KGYI 272115Z AUTO 20007KT 10SM CLR 35/21 A2995 RMK AO2 T03500211
KGYI 272055Z AUTO 21008KT 10SM CLR 35/21 A2995 RMK AO2 T03520205
KGYI 272035Z AUTO 19010KT 10SM CLR 36/21 A2996 RMK AO2 T03550213
KGYI 272015Z AUTO 20008KT 10SM CLR 35/21 A2997 RMK AO2 T03490211
KGYI 271955Z AUTO 19007KT 10SM CLR 35/21 A2997 RMK AO2 T03450210
KGYI 271935Z AUTO 18009KT 10SM CLR 35/21 A2998 RMK AO2 T03490213
KGYI 271915Z AUTO 19007KT 10SM CLR 35/21 A2999 RMK AO2 T03460214
KGYI 271855Z AUTO 21008KT 10SM CLR 34/21 A3000 RMK AO2 T03430210
KGYI 271835Z AUTO 23005KT 10SM CLR 34/21 A3000 RMK AO2 T03400209
KGYI 271815Z AUTO 27007KT 10SM CLR 34/21 A3001 RMK AO2 T03350210
KGYI 271755Z AUTO 23008KT 10SM CLR 34/21 A3002 RMK AO2 T03350209 10336 20255
KGYI 271735Z AUTO 25007KT 10SM CLR 33/21 A3002 RMK AO2 T03290207
KGYI 271715Z AUTO 23008KT 10SM CLR 33/20 A3002 RMK AO2 T03250204
KGYI 271655Z AUTO 23008KT 10SM CLR 32/21 A3003 RMK AO2 T03230206
KGYI 271635Z AUTO 24008KT 10SM CLR 32/20 A3004 RMK AO2 T03190202
KGYI 271615Z AUTO 25008KT 10SM CLR 32/20 A3005 RMK AO2 T03160201
KGYI 271555Z AUTO 24011KT 10SM CLR 31/20 A3005 RMK AO2 T03140201
KGYI 271535Z AUTO 26010KT 10SM CLR 31/20 A3005 RMK AO2 T03100202
KGYI 271515Z AUTO 24009KT 10SM CLR 31/20 A3005 RMK AO2 T03050202
KGYI 271455Z AUTO 23014G18KT 10SM CLR 30/20 A3005 RMK AO2 T02980202
KGYI 271435Z AUTO 23011KT 10SM CLR 30/21 A3004 RMK AO2 T02960210
KGYI 271415Z AUTO 23010KT 10SM CLR 29/21 A3005 RMK AO2 T02850213
KGYI 271355Z AUTO 22012KT 10SM CLR 28/22 A3004 RMK AO2 T02800216
KGYI 271335Z AUTO 21011KT 10SM CLR 28/22 A3003 RMK AO2 T02780215
KGYI 271315Z AUTO 21011KT 10SM CLR 27/22 A3003 RMK AO2 T02730217
KGYI 271255Z AUTO 21010KT 10SM CLR 27/22 A3002 RMK AO2 T02680217
KGYI 271235Z AUTO 20010KT 10SM CLR 27/22 A3002 RMK AO2 T02650216
KGYI 271215Z AUTO 20008KT 10SM CLR 26/21 A3002 RMK AO2 T02600214
KGYI 271155Z AUTO 20009KT 10SM CLR 26/21 A3002 RMK AO2 T02550212 10286 20255
KGYI 271135Z AUTO 20009KT 10SM CLR 26/21 A3002 RMK AO2 T02570211
KGYI 271115Z AUTO 20010KT 10SM CLR 26/21 A3002 RMK AO2 T02580211
KGYI 271055Z AUTO 19009KT 10SM CLR 26/21 A3001 RMK AO2 T02570211
KGYI 271035Z AUTO 18009KT 10SM CLR 26/21 A3000 RMK AO2 T02550211
KGYI 271015Z AUTO 18009KT 10SM CLR 26/21 A3000 RMK AO2 T02550211
KGYI 270955Z AUTO 18008KT 10SM CLR 26/21 A3000 RMK AO2 T02560212
KGYI 270935Z AUTO 18008KT 10SM CLR 26/21 A3000 RMK AO2 LTG DSNT W T02570213
KGYI 270915Z AUTO 17008KT 10SM CLR 26/22 A2999 RMK AO2 T02600216
KGYI 270855Z AUTO 17008KT 10SM CLR 26/22 A3000 RMK AO2 T02600218
KGYI 270835Z AUTO 17009KT 10SM CLR 26/22 A3000 RMK AO2 T02620220
KGYI 270810Z AUTO 17008KT 10SM CLR 27/22 A3000 RMK AO2 T02650222
KGYI 270755Z AUTO 17008KT 10SM CLR 27/22 A3000 RMK AO2 T02660222
KGYI 270735Z AUTO 17010KT 10SM CLR 27/22 A3000 RMK AO2 T02720221
KGYI 270715Z AUTO 17009KT 10SM CLR 28/22 A3000 RMK AO2 T02750221
KGYI 270655Z AUTO 16009KT 10SM CLR 28/22 A3000 RMK AO2 T02780220
KGYI 270635Z AUTO 16008KT 10SM CLR 28/22 A3000 RMK AO2 T02800220
KGYI 270615Z AUTO 15008KT 10SM CLR 28/22 A3000 RMK AO2 T02830218
KGYI 270555Z AUTO 16008KT 10SM CLR 29/22 A3000 RMK AO2 T02870217 10336 20286 403460247
KGYI 270535Z AUTO 17011KT 10SM CLR 29/22 A3000 RMK AO2 T02900216
KGYI 270515Z AUTO 16010KT 10SM CLR 29/22 A3000 RMK AO2 T02920215
KGYI 270455Z AUTO 16014KT 10SM CLR 29/21 A3000 RMK AO2 T02920213
KGYI 270435Z AUTO 15013KT 10SM CLR 29/21 A2999 RMK AO2 T02930213
KGYI 270415Z AUTO 16011G16KT 10SM CLR 30/22 A3000 RMK AO2 T02950215
KGYI 270355Z AUTO 15010KT 10SM CLR 30/22 A2999 RMK AO2 T02950215
KGYI 270335Z AUTO 15010KT 10SM CLR 30/22 A3000 RMK AO2 T02950216
KGYI 270315Z AUTO 15011KT 10SM CLR 30/22 A3000 RMK AO2 T02960217
KGYI 270255Z AUTO 14010KT 10SM CLR 30/22 A3000 RMK AO2 T02990215
KGYI 270235Z AUTO 14007KT 10SM CLR 30/21 A3000 RMK AO2 T03000213
KGYI 270215Z AUTO 14007KT 10SM CLR 31/21 A3000 RMK AO2 T03050212
KGYI 270155Z AUTO 14006KT 10SM CLR 31/21 A3000 RMK AO2 T03050210
KGYI 270135Z AUTO 14008KT 10SM CLR 31/21 A3000 RMK AO2 T03110207
KGYI 270115Z AUTO 15009KT 10SM CLR 32/21 A3000 RMK AO2 T03150208
KGYI 270055Z AUTO 15009KT 10SM CLR 32/21 A2999 RMK AO2 T03200209
KGYI 270035Z AUTO 15009KT 10SM CLR 33/21 A2999 RMK AO2 T03250212
KGYI 270015Z AUTO 14010KT 10SM CLR 33/21 A2998 RMK AO2 T03310213
KGYI 262355Z AUTO 14009KT 10SM CLR 34/22 A2998 RMK AO2 T03360221 10346 20326
KGYI 262335Z AUTO 15010KT 10SM CLR 34/22 A2998 RMK AO2 T03390215
KGYI 262315Z AUTO 16010KT 10SM CLR 34/22 A2998 RMK AO2 T03420215
KGYI 262255Z AUTO 17010KT 10SM CLR 34/22 A2999 RMK AO2 T03420215
KGYI 262235Z AUTO 17009KT 10SM CLR 34/22 A2999 RMK AO2 T03440219
KGYI 262215Z AUTO 16009KT 10SM SCT060 34/22 A3000 RMK AO2 T03420220
KGYI 262155Z AUTO 17010KT 10SM CLR 34/22 A3000 RMK AO2 T03430219
KGYI 262135Z AUTO 16011G15KT 10SM SCT050 SCT070 SCT080 34/22 A3001 RMK AO2 T03410219
KGYI 262115Z AUTO 18012KT 10SM SCT050 SCT070 SCT080 34/23 A3002 RMK AO2 T03400225
KGYI 262055Z AUTO 17011KT 10SM SCT050 35/23 A3002 RMK AO2 T03450227
KGYI 262035Z AUTO 18011G15KT 10SM SCT050 34/22 A3002 RMK AO2 T03430224
KGYI 262015Z AUTO 20010KT 10SM SCT048 SCT050 35/22 A3003 RMK AO2 T03450219
KGYI 261955Z AUTO 17009G16KT 10SM SCT047 SCT055 SCT075 34/22 A3004 RMK AO2 T03400224
KGYI 261935Z AUTO 18013KT 10SM SCT045 SCT055 SCT075 34/23 A3005 RMK AO2 T03380229
KGYI 261915Z AUTO 19011KT 10SM SCT043 SCT055 34/23 A3005 RMK AO2 T03400233
KGYI 261855Z AUTO 21011KT 10SM CLR 34/23 A3006 RMK AO2 T03360228
KGYI 261835Z AUTO 17011G17KT 7SM CLR 33/24 A3006 RMK AO2 T03310235
KGYI 261815Z AUTO 18010G14KT 10SM CLR 33/24 A3007 RMK AO2 T03290235
KGYI 261755Z AUTO 16010KT 10SM CLR 33/24 A3007 RMK AO2 T03290237 10330 20247
KGYI 261735Z AUTO 18009KT 10SM CLR 33/24 A3008 RMK AO2 T03250239
KGYI 261715Z AUTO 19010KT 7SM CLR 33/23 A3008 RMK AO2 T03250234
KGYI 261655Z AUTO 19007G11KT 10SM CLR 32/23 A3008 RMK AO2 T03220232
KGYI 261635Z AUTO 20012KT 10SM CLR 32/23 A3008 RMK AO2 T03180234